Time;durP1;ratioP1;P1;durP2;ratioP2;P2;SDS_P1;SDS_P2;PMS_P1;PMS_P2;Temp;Humidity;BMP_temperature;BMP_pressure;BME280_temperature;BME280_humidity;BME280_pressure;Samples;Min_cycle;Max_cycle;Signal;HPM_P1;HPM_P2
2021/08/30 00:02:08;;;;;;;10.70;6.85;;;;;;;14.89;100.00;97463.31;5038482;28;20446;-77
2021/08/30 00:04:36;;;;;;;9.93;6.90;;;;;;;14.92;100.00;97468.09;5037355;28;20681;-76
2021/08/30 00:07:02;;;;;;;10.18;6.68;;;;;;;15.01;100.00;97469.88;5019819;28;20048;-77
2021/08/30 00:09:29;;;;;;;9.93;6.97;;;;;;;14.91;100.00;97461.06;5019534;28;20052;-77
2021/08/30 00:11:56;;;;;;;11.98;6.93;;;;;;;14.93;100.00;97461.50;5034552;28;20191;-77
2021/08/30 00:14:23;;;;;;;10.57;6.63;;;;;;;14.84;100.00;97460.84;5035708;28;20111;-78
2021/08/30 00:16:49;;;;;;;9.68;6.72;;;;;;;14.82;100.00;97462.31;5036380;28;20049;-78
2021/08/30 00:19:16;;;;;;;9.35;7.00;;;;;;;14.88;100.00;97461.75;5036413;28;20073;-78
2021/08/30 00:21:43;;;;;;;11.25;6.97;;;;;;;14.82;100.00;97462.31;5035103;28;20056;-78
2021/08/30 00:24:09;;;;;;;11.50;7.25;;;;;;;14.70;100.00;97454.22;5035474;28;20045;-78
2021/08/30 00:26:36;;;;;;;10.25;6.75;;;;;;;14.63;100.00;97448.56;5035114;28;20465;-76
2021/08/30 00:29:03;;;;;;;10.50;7.60;;;;;;;14.62;100.00;97455.94;5017676;28;20042;-77
2021/08/30 00:31:30;;;;;;;13.13;7.22;;;;;;;14.68;100.00;97459.22;5035073;28;20136;-77
2021/08/30 00:34:00;;;;;;;11.52;6.88;;;;;;;14.76;100.00;97461.00;5000724;28;20044;-77
2021/08/30 00:36:34;;;;;;;11.05;7.47;;;;;;;14.44;100.00;97437.47;5038344;28;20632;-78
2021/08/30 00:39:08;;;;;;;11.38;7.35;;;;;;;14.63;100.00;97454.81;5019925;28;20037;-77
2021/08/30 00:41:38;;;;;;;11.90;7.55;;;;;;;14.66;100.00;97456.06;5014923;28;20053;-77
2021/08/30 00:44:04;;;;;;;13.10;7.18;;;;;;;14.76;100.00;97463.72;5032042;28;20716;-77
2021/08/30 00:46:31;;;;;;;12.43;7.00;;;;;;;14.76;100.00;97452.84;5013506;28;20057;-77
2021/08/30 00:48:57;;;;;;;11.10;7.30;;;;;;;14.72;100.00;97460.91;5031637;28;20046;-77
2021/08/30 00:51:24;;;;;;;12.98;7.00;;;;;;;14.69;100.00;97453.41;5032851;28;20064;-77
2021/08/30 00:53:51;;;;;;;9.48;7.10;;;;;;;14.60;100.00;97471.84;5031578;28;20045;-79
2021/08/30 00:56:18;;;;;;;13.18;7.32;;;;;;;14.63;100.00;97457.53;5032681;28;20042;-78
2021/08/30 00:58:45;;;;;;;11.85;6.45;;;;;;;14.62;100.00;97464.09;5033856;28;20046;-78
2021/08/30 01:01:12;;;;;;;15.90;6.90;;;;;;;14.67;100.00;97455.69;5016746;28;20081;-78
2021/08/30 01:03:40;;;;;;;11.05;6.57;;;;;;;14.74;100.00;97466.00;5035677;28;20073;-76
2021/08/30 01:06:21;;;;;;;9.38;6.50;;;;;;;14.76;100.00;97466.47;5017784;28;20050;-77
2021/08/30 01:09:06;;;;;;;11.98;6.88;;;;;;;14.81;100.00;97455.31;5035028;28;20095;-77
2021/08/30 01:11:38;;;;;;;11.55;6.75;;;;;;;14.84;100.00;97473.69;5032098;28;20449;-78
2021/08/30 01:14:08;;;;;;;11.15;7.30;;;;;;;14.74;100.00;97472.22;5016702;28;20080;-77
2021/08/30 01:16:36;;;;;;;18.38;7.10;;;;;;;14.60;100.00;97471.03;5036159;28;20433;-77
2021/08/30 01:19:07;;;;;;;8.55;6.43;;;;;;;14.71;100.00;97466.69;5032360;28;20408;-77
2021/08/30 01:21:40;;;;;;;8.98;6.80;;;;;;;14.79;100.00;97474.72;5033062;28;20052;-78
2021/08/30 01:24:13;;;;;;;13.50;6.63;;;;;;;14.88;100.00;97469.94;5031505;28;20042;-76
2021/08/30 01:26:48;;;;;;;13.00;6.72;;;;;;;14.93;100.00;97472.41;5032857;28;20059;-77
2021/08/30 01:29:18;;;;;;;8.52;6.63;;;;;;;14.94;100.00;97468.53;5013631;28;20052;-77
2021/08/30 01:31:54;;;;;;;8.00;6.35;;;;;;;14.91;100.00;97471.16;5031808;28;20049;-76
2021/08/30 01:34:22;;;;;;;9.32;6.43;;;;;;;15.01;100.00;97470.66;5031181;28;20053;-75
2021/08/30 01:36:50;;;;;;;10.32;6.15;;;;;;;14.86;100.00;97472.22;5030530;28;20060;-77
2021/08/30 01:39:18;;;;;;;8.50;6.47;;;;;;;14.83;100.00;97467.44;5031031;28;20046;-77
2021/08/30 01:41:48;;;;;;;10.18;6.28;;;;;;;14.92;100.00;97468.09;5014115;28;20068;-76
2021/08/30 01:44:16;;;;;;;8.32;6.40;;;;;;;14.95;100.00;97474.78;5031243;28;20076;-78
2021/08/30 01:46:43;;;;;;;11.27;6.40;;;;;;;15.06;100.00;97462.25;5032473;28;20494;-77
2021/08/30 01:49:13;;;;;;;11.48;6.65;;;;;;;15.06;100.00;97466.91;5033009;28;20128;-77
2021/08/30 01:51:40;;;;;;;10.40;6.68;;;;;;;15.08;100.00;97462.69;5039882;28;20052;-77
2021/08/30 01:54:08;;;;;;;12.50;6.50;;;;;;;14.91;100.00;97468.44;5033619;28;20052;-77
2021/08/30 01:56:35;;;;;;;11.20;6.13;;;;;;;15.04;100.00;97472.72;5030959;28;20049;-77
2021/08/30 02:01:47;;;;;;;7.97;6.27;;;;;;;15.01;100.00;97462.50;5032287;28;20051;-78
2021/08/30 02:04:14;;;;;;;10.50;7.00;;;;;;;14.98;100.00;97460.47;5033577;28;20045;-78
2021/08/30 02:06:41;;;;;;;10.38;6.03;;;;;;;14.87;100.00;97459.34;5030858;28;20049;-77
2021/08/30 02:09:08;;;;;;;10.80;6.78;;;;;;;14.93;100.00;97464.22;5014437;28;20099;-78
2021/08/30 02:11:36;;;;;;;10.90;6.75;;;;;;;14.80;100.00;97465.41;5015955;28;20575;-77
2021/08/30 02:14:07;;;;;;;7.78;5.95;;;;;;;14.85;100.00;97462.44;5014710;28;20048;-77
2021/08/30 02:16:35;;;;;;;9.77;6.43;;;;;;;14.89;100.00;97465.28;5029555;28;20045;-77
2021/08/30 02:19:24;;;;;;;11.18;6.40;;;;;;;14.94;100.00;97471.25;5031456;28;20459;-77
2021/08/30 02:21:59;;;;;;;11.45;6.88;;;;;;;15.39;100.00;97451.84;5031369;28;20045;-77
2021/08/30 02:24:41;;;;;;;10.63;6.43;;;;;;;15.05;100.00;97468.81;5013703;28;20673;-77
2021/08/30 02:27:14;;;;;;;7.68;6.22;;;;;;;15.07;100.00;97471.22;5013304;28;20401;-78
2021/08/30 02:29:51;;;;;;;9.23;5.72;;;;;;;15.13;100.00;97461.63;5030714;28;20532;-77
2021/08/30 02:32:20;;;;;;;10.68;5.45;;;;;;;14.98;100.00;97461.25;5031154;28;20046;-77
2021/08/30 02:34:53;;;;;;;7.60;5.70;;;;;;;15.23;100.00;97464.66;5030578;28;20041;-76
2021/08/30 02:37:22;;;;;;;10.27;5.95;;;;;;;15.30;100.00;97455.88;5033875;28;20051;-76
2021/08/30 02:39:51;;;;;;;8.65;5.80;;;;;;;15.21;100.00;97461.47;5017511;28;20060;-76
2021/08/30 02:42:19;;;;;;;8.18;4.93;;;;;;;15.05;100.00;97460.66;5030373;28;20092;-77
2021/08/30 02:44:47;;;;;;;7.43;5.43;;;;;;;14.99;100.00;97467.50;5032930;28;20045;-77
2021/08/30 02:47:15;;;;;;;7.65;4.80;;;;;;;14.99;100.00;97465.56;5033223;28;20068;-77
2021/08/30 02:49:44;;;;;;;5.97;4.70;;;;;;;15.03;100.00;97470.31;5017050;28;20045;-77
2021/08/30 02:52:13;;;;;;;6.78;4.82;;;;;;;15.10;100.00;97463.13;5034880;28;20061;-77
2021/08/30 02:54:43;;;;;;;11.80;5.30;;;;;;;15.13;100.00;97462.44;5016148;28;20049;-77
2021/08/30 02:57:11;;;;;;;7.38;5.20;;;;;;;15.03;100.00;97464.88;5037420;28;20041;-77
2021/08/30 02:59:38;;;;;;;6.93;4.85;;;;;;;14.83;100.00;97462.00;5020153;28;20049;-78
2021/08/30 03:02:07;;;;;;;7.78;4.78;;;;;;;14.95;100.00;97456.50;5020174;28;20045;-77
2021/08/30 03:04:35;;;;;;;7.65;4.28;;;;;;;14.95;100.00;97456.50;5035872;28;20095;-77
2021/08/30 03:07:03;;;;;;;7.30;5.30;;;;;;;14.92;100.00;97459.91;5034257;28;20494;-77
2021/08/30 03:09:30;;;;;;;6.13;4.40;;;;;;;14.94;100.00;97471.25;5016161;28;20049;-76
2021/08/30 03:11:58;;;;;;;7.47;4.63;;;;;;;15.11;100.00;97463.91;5035085;28;20056;-77
2021/08/30 03:14:26;;;;;;;6.65;4.30;;;;;;;15.15;100.00;97468.31;5037453;28;20057;-77
2021/08/30 03:16:56;;;;;;;7.63;4.65;;;;;;;15.17;100.00;97460.59;5019348;28;20045;-77
2021/08/30 03:19:24;;;;;;;6.78;4.60;;;;;;;15.22;100.00;97451.38;5038666;28;20046;-77
2021/08/30 03:21:51;;;;;;;7.38;4.70;;;;;;;15.01;100.00;97465.22;5038547;28;20056;-76
2021/08/30 03:24:19;;;;;;;6.72;4.95;;;;;;;14.89;100.00;97457.09;5038068;28;20574;-78
2021/08/30 03:26:52;;;;;;;6.25;4.85;;;;;;;15.07;100.00;97469.28;5038921;28;20041;-77
2021/08/30 03:29:20;;;;;;;10.13;5.15;;;;;;;15.08;100.00;97470.06;5037547;28;20064;-76
2021/08/30 03:31:50;;;;;;;11.10;4.90;;;;;;;15.17;100.00;97470.72;5001727;28;20045;-77
2021/08/30 03:34:18;;;;;;;7.13;4.85;;;;;;;15.24;100.00;97462.72;5033199;28;20045;-76
2021/08/30 03:36:45;;;;;;;6.85;5.10;;;;;;;15.27;100.00;97468.28;5033047;28;20064;-77
2021/08/30 03:39:13;;;;;;;9.30;5.13;;;;;;;15.26;100.00;97465.88;5036086;28;20037;-76
2021/08/30 03:41:40;;;;;;;8.18;5.28;;;;;;;15.32;100.00;97469.94;5053803;28;20045;-78
2021/08/30 03:44:09;;;;;;;9.98;5.03;;;;;;;15.17;100.00;97471.53;5056615;28;20144;-78
2021/08/30 03:46:40;;;;;;;9.65;4.72;;;;;;;15.16;100.00;97478.09;5040079;28;20048;-78
2021/08/30 03:49:07;;;;;;;6.07;4.97;;;;;;;15.25;100.00;97470.53;5058851;28;20083;-78
2021/08/30 03:51:35;;;;;;;9.63;5.15;;;;;;;15.31;100.00;97473.81;5057848;28;20106;-78
2021/08/30 03:54:03;;;;;;;8.70;4.80;;;;;;;15.27;100.00;97486.56;5057496;28;20048;-78
2021/08/30 03:56:29;;;;;;;5.28;4.45;;;;;;;15.38;100.00;97482.22;5057830;28;20052;-78
2021/08/30 03:58:58;;;;;;;8.82;4.93;;;;;;;15.13;100.00;97476.06;5039658;28;20048;-78
2021/08/30 04:01:25;;;;;;;11.35;5.55;;;;;;;15.11;100.00;97489.25;5057482;28;20041;-78
2021/08/30 04:03:56;;;;;;;8.98;5.20;;;;;;;14.93;100.00;97493.41;5039721;28;20045;-78
2021/08/30 04:06:24;;;;;;;8.55;5.80;;;;;;;14.98;100.00;97495.91;5055941;28;20059;-77
2021/08/30 04:08:51;;;;;;;11.40;7.57;;;;;;;15.06;100.00;97499.63;5056980;28;20048;-77
2021/08/30 04:11:19;;;;;;;11.98;6.18;;;;;;;15.13;100.00;97488.91;5054361;28;20116;-77
2021/08/30 04:13:46;;;;;;;7.35;5.43;;;;;;;15.12;100.00;97504.50;5035735;28;20080;-78
2021/08/30 04:16:13;;;;;;;9.40;5.53;;;;;;;15.10;100.00;97492.34;5054125;28;20056;-78
2021/08/30 04:18:40;;;;;;;8.73;5.97;;;;;;;14.97;100.00;97497.81;5053951;28;20045;-77
2021/08/30 04:21:07;;;;;;;10.20;6.13;;;;;;;14.61;100.00;97502.56;5051912;28;20049;-78
2021/08/30 04:23:33;;;;;;;8.13;6.03;;;;;;;14.68;100.00;97500.88;5051806;28;20056;-76
2021/08/30 04:26:00;;;;;;;9.93;5.60;;;;;;;14.74;100.00;97501.41;5053301;28;20103;-76
2021/08/30 04:28:26;;;;;;;10.73;5.90;;;;;;;14.99;100.00;97502.94;5057234;28;20528;-77
2021/08/30 04:30:53;;;;;;;11.27;5.53;;;;;;;15.17;100.00;97495.25;5052928;28;20069;-77
2021/08/30 04:33:22;;;;;;;8.85;5.50;;;;;;;15.17;100.00;97503.44;5053969;28;20072;-78
2021/08/30 04:35:49;;;;;;;8.38;5.78;;;;;;;15.08;100.00;97506.31;5035466;28;20497;-77
2021/08/30 04:38:16;;;;;;;9.48;5.93;;;;;;;15.23;100.00;97499.31;5035938;28;20048;-77
2021/08/30 04:40:43;;;;;;;8.73;5.85;;;;;;;15.26;100.00;97509.53;5053496;28;20041;-77
2021/08/30 04:43:11;;;;;;;11.18;5.60;;;;;;;15.13;100.00;97505.25;5054357;28;20041;-77
2021/08/30 04:45:38;;;;;;;7.97;5.47;;;;;;;15.20;100.00;97506.25;5053519;28;20044;-78
2021/08/30 04:48:06;;;;;;;8.75;5.53;;;;;;;15.21;100.00;97507.84;5051946;28;20119;-77
2021/08/30 04:50:33;;;;;;;10.10;6.20;;;;;;;15.30;100.00;97503.03;5038577;28;20136;-77
2021/08/30 04:52:59;;;;;;;10.52;5.60;;;;;;;14.96;100.00;97507.16;5056752;28;20099;-77
2021/08/30 04:55:26;;;;;;;6.28;5.10;;;;;;;14.91;100.00;97509.31;5055107;28;20040;-78
2021/08/30 04:57:53;;;;;;;11.13;5.85;;;;;;;15.01;100.00;97505.31;5056030;28;20045;-78
2021/08/30 05:00:19;;;;;;;8.73;5.55;;;;;;;15.00;100.00;97496.34;5055729;28;20041;-78
2021/08/30 05:02:46;;;;;;;6.88;4.72;;;;;;;15.04;100.00;97502.69;5055736;28;20053;-79
2021/08/30 05:05:13;;;;;;;6.65;4.90;;;;;;;15.11;100.00;97502.88;5055713;28;20044;-78
2021/08/30 05:07:44;;;;;;;12.30;4.72;;;;;;;14.79;100.00;97515.59;5038722;28;20048;-77
2021/08/30 05:10:13;;;;;;;6.38;4.93;;;;;;;15.08;100.00;97502.78;5055799;28;20059;-78
2021/08/30 05:12:40;;;;;;;12.88;4.90;;;;;;;15.11;100.00;97510.28;5038696;28;20049;-79
2021/08/30 05:15:08;;;;;;;11.82;5.05;;;;;;;15.07;100.00;97517.56;5056234;28;20033;-77
2021/08/30 05:17:35;;;;;;;8.10;5.18;;;;;;;15.06;100.00;97524.16;5057010;28;20052;-78
2021/08/30 05:20:03;;;;;;;7.57;5.05;;;;;;;15.36;100.00;97517.19;5055852;28;20822;-78
2021/08/30 05:22:30;;;;;;;9.13;5.18;;;;;;;15.49;100.00;97513.31;5036736;28;20052;-78
2021/08/30 05:24:58;;;;;;;7.38;5.60;;;;;;;15.62;100.00;97514.81;5054490;28;20128;-78
2021/08/30 05:27:25;;;;;;;8.10;4.57;;;;;;;15.76;100.00;97515.19;5036735;28;20044;-78
2021/08/30 05:29:51;;;;;;;11.63;4.70;;;;;;;15.81;100.00;97514.13;5020691;28;20047;-78
2021/08/30 05:32:18;;;;;;;10.75;4.90;;;;;;;15.77;100.00;97524.97;5052765;28;20619;-78
2021/08/30 05:34:44;;;;;;;7.13;4.57;;;;;;;15.69;100.00;97527.88;5055101;28;20053;-78
2021/08/30 05:37:11;;;;;;;9.85;4.80;;;;;;;15.87;100.00;97532.63;5053575;28;20056;-78
2021/08/30 05:39:38;;;;;;;6.68;4.35;;;;;;;15.95;100.00;97539.84;5054004;28;20041;-77
2021/08/30 05:42:09;;;;;;;6.13;4.53;;;;;;;16.21;100.00;97528.41;5055190;28;20053;-78
2021/08/30 05:44:35;;;;;;;10.93;4.80;;;;;;;16.33;100.00;97541.19;5054484;28;20048;-78
2021/08/30 05:47:02;;;;;;;6.70;4.68;;;;;;;16.46;100.00;97540.72;5038462;28;20056;-78
2021/08/30 05:49:29;;;;;;;7.22;5.07;;;;;;;16.62;100.00;97543.47;5056181;28;20516;-78
2021/08/30 05:51:56;;;;;;;7.90;4.80;;;;;;;16.61;100.00;97533.66;5055196;28;20052;-78
2021/08/30 05:54:22;;;;;;;7.40;4.95;;;;;;;16.69;100.00;97536.22;5053690;28;20056;-77
2021/08/30 05:56:49;;;;;;;7.78;4.50;;;;;;;16.79;100.00;97526.66;5056367;28;20052;-77
2021/08/30 05:59:15;;;;;;;9.55;4.95;;;;;;;16.77;100.00;97537.16;5053864;28;20059;-77
2021/08/30 06:01:42;;;;;;;6.00;4.90;;;;;;;16.66;100.00;97536.91;5053280;28;20045;-78
2021/08/30 06:04:09;;;;;;;7.38;4.97;;;;;;;16.61;100.00;97534.47;5055076;28;20132;-77
2021/08/30 06:06:36;;;;;;;7.95;5.13;;;;;;;16.48;100.00;97526.69;5034567;28;20053;-78
2021/08/30 06:09:02;;;;;;;8.10;5.18;;;;;;;16.58;100.00;97520.72;5055637;28;20128;-78
2021/08/30 06:11:29;;;;;;;7.13;5.70;;;;;;;16.57;100.00;97524.59;5037258;28;20076;-78
2021/08/30 06:13:55;;;;;;;7.45;6.13;;;;;;;16.01;100.00;97513.09;5053881;28;20041;-78
2021/08/30 06:16:23;;;;;;;8.82;5.88;;;;;;;16.21;100.00;97523.72;5037219;28;20459;-78
2021/08/30 06:18:50;;;;;;;11.18;6.15;;;;;;;16.15;100.00;97519.69;5055291;28;20049;-78
2021/08/30 06:21:16;;;;;;;8.75;6.55;;;;;;;16.26;100.00;97530.84;5052003;28;20041;-78
2021/08/30 06:23:43;;;;;;;8.00;6.00;;;;;;;16.35;100.00;97528.75;5036317;28;20497;-78
2021/08/30 06:26:09;;;;;;;9.18;6.68;;;;;;;16.29;100.00;97532.09;5052729;28;20045;-78
2021/08/30 06:28:38;;;;;;;8.65;6.18;;;;;;;16.40;100.00;97533.13;5053079;28;20044;-77
2021/08/30 06:31:04;;;;;;;9.43;6.82;;;;;;;16.45;100.00;97549.25;5028683;28;20045;-77
2021/08/30 06:33:31;;;;;;;9.68;7.20;;;;;;;16.42;100.00;97533.56;5011229;28;20107;-77
2021/08/30 06:35:58;;;;;;;8.55;6.30;;;;;;;16.59;100.00;97544.16;5028245;28;20060;-77
2021/08/30 06:38:25;;;;;;;9.55;6.32;;;;;;;16.60;100.00;97532.88;5028699;28;20497;-78
2021/08/30 06:40:51;;;;;;;7.80;5.78;;;;;;;17.01;100.00;97545.09;5031723;28;20045;-78
2021/08/30 06:43:18;;;;;;;8.40;6.28;;;;;;;17.00;100.00;97537.25;5013013;28;20664;-79
2021/08/30 06:45:44;;;;;;;6.60;5.43;;;;;;;17.03;100.00;97545.53;5012078;28;20107;-79
2021/08/30 06:48:11;;;;;;;6.25;5.15;;;;;;;16.95;100.00;97546.53;5033686;28;20811;-79
2021/08/30 06:50:38;;;;;;;6.63;4.90;;;;;;;17.07;100.00;97540.94;5033757;28;20049;-78
2021/08/30 06:53:04;;;;;;;7.22;5.00;;;;;;;17.03;100.00;97551.00;5034859;28;20057;-78
2021/08/30 06:55:31;;;;;;;5.30;4.30;;;;;;;17.08;100.00;97549.94;5035501;28;20076;-78
2021/08/30 06:57:57;;;;;;;7.40;4.80;;;;;;;16.65;100.00;97551.72;5034559;28;20676;-78
2021/08/30 07:00:25;;;;;;;8.88;4.93;;;;;;;16.94;100.00;97549.63;5034103;28;20049;-78
2021/08/30 07:02:52;;;;;;;6.35;5.00;;;;;;;17.00;100.00;97554.47;5033250;28;20050;-77
2021/08/30 07:05:19;;;;;;;7.47;4.45;;;;;;;17.17;100.00;97547.75;5033319;28;20063;-78
2021/08/30 07:07:45;;;;;;;5.10;3.92;;;;;;;16.96;100.00;97539.91;5016990;28;20600;-78
2021/08/30 07:10:12;;;;;;;6.45;3.70;;;;;;;17.21;100.00;97540.44;5034882;28;20409;-79
2021/08/30 07:12:39;;;;;;;5.82;4.22;;;;;;;17.19;100.00;97551.72;5034903;28;20053;-77
2021/08/30 07:15:06;;;;;;;5.65;4.13;;;;;;;17.29;100.00;97550.38;5037013;28;20049;-79
2021/08/30 07:17:33;;;;;;;5.00;3.90;;;;;;;17.46;100.00;97549.94;5034111;28;20535;-79
2021/08/30 07:20:01;;;;;;;7.82;3.42;;;;;;;17.09;100.00;97551.50;5033909;28;20758;-78
2021/08/30 07:22:30;;;;;;;6.18;3.83;;;;;;;17.28;100.00;97557.00;5033985;28;20060;-79
2021/08/30 07:24:56;;;;;;;6.85;3.78;;;;;;;17.49;100.00;97546.47;5031505;28;20050;-78
2021/08/30 07:27:23;;;;;;;5.13;3.55;;;;;;;17.50;100.00;97550.78;5015742;28;20256;-78
2021/08/30 07:29:50;;;;;;;5.82;3.88;;;;;;;17.71;100.00;97544.94;5031804;28;20070;-79
2021/08/30 07:32:17;;;;;;;6.40;3.35;;;;;;;17.83;100.00;97559.25;5016746;28;20053;-79
2021/08/30 07:34:44;;;;;;;5.07;3.22;;;;;;;18.48;100.00;97573.72;5002244;28;20160;-78
2021/08/30 07:37:11;;;;;;;4.63;3.47;;;;;;;18.58;100.00;97575.81;4998512;28;20038;-79
2021/08/30 07:39:38;;;;;;;4.22;3.25;;;;;;;18.65;100.00;97577.91;5015189;28;20056;-79
2021/08/30 07:42:04;;;;;;;5.30;3.30;;;;;;;18.00;100.00;97560.75;5016648;28;20058;-78
2021/08/30 07:44:31;;;;;;;3.72;2.70;;;;;;;18.48;100.00;97576.44;4999135;28;20046;-78
2021/08/30 07:46:58;;;;;;;5.72;3.25;;;;;;;18.34;100.00;97576.22;5015278;28;20050;-76
2021/08/30 07:49:24;;;;;;;3.75;2.67;;;;;;;18.61;100.00;97577.84;5016418;28;20038;-78
2021/08/30 07:51:51;;;;;;;4.65;2.75;;;;;;;18.33;100.00;97580.09;5016712;28;20042;-78
2021/08/30 07:54:18;;;;;;;3.90;2.35;;;;;;;18.63;100.00;97578.25;5018322;28;20045;-79
2021/08/30 07:56:45;;;;;;;4.38;2.72;;;;;;;18.80;100.00;97585.19;5024726;28;20045;-78
2021/08/30 07:59:12;;;;;;;4.63;2.97;;;;;;;18.23;100.00;97583.44;5026008;28;20042;-79
2021/08/30 08:01:39;;;;;;;6.03;2.50;;;;;;;18.27;100.00;97587.03;4998573;28;20107;-78
2021/08/30 08:04:06;;;;;;;5.95;3.15;;;;;;;18.23;100.00;97583.44;5013106;28;20064;-77
2021/08/30 08:06:33;;;;;;;6.43;3.70;;;;;;;18.89;100.00;97595.91;5008792;28;20046;-77
2021/08/30 08:09:00;;;;;;;5.85;4.40;;;;;;;18.55;100.00;97595.78;5027934;28;20072;-76
2021/08/30 08:11:28;;;;;;;8.38;3.60;;;;;;;18.89;100.00;97598.63;5026975;28;20049;-77
2021/08/30 08:13:54;;;;;;;7.00;4.63;;;;;;;19.10;100.00;97599.72;5028628;28;20518;-77
2021/08/30 08:16:21;;;;;;;6.40;4.50;;;;;;;18.78;100.00;97601.22;5031582;28;20459;-80
2021/08/30 08:18:48;;;;;;;7.88;4.78;;;;;;;18.59;100.00;97598.56;5012137;28;20107;-79
2021/08/30 08:21:14;;;;;;;11.43;4.85;;;;;;;18.86;100.00;97605.66;4996178;28;20057;-80
2021/08/30 08:23:42;;;;;;;8.40;4.70;;;;;;;18.87;100.00;97603.69;5016008;28;20056;-80
2021/08/30 08:26:08;;;;;;;8.15;5.15;;;;;;;18.78;100.00;97600.44;5005016;28;20141;-79
2021/08/30 08:28:35;;;;;;;7.25;5.00;;;;;;;18.55;100.00;97611.44;5021649;28;20045;-81
2021/08/30 08:31:02;;;;;;;7.00;4.97;;;;;;;18.92;100.00;97608.84;5013556;28;20501;-81
2021/08/30 08:33:29;;;;;;;10.48;4.50;;;;;;;19.04;100.00;97606.72;4997040;28;20057;-79
2021/08/30 08:35:56;;;;;;;7.85;4.68;;;;;;;18.94;100.00;97621.06;4983205;28;20096;-83
2021/08/30 08:38:25;;;;;;;7.50;4.93;;;;;;;19.59;100.00;97612.56;4997739;28;20057;-81
2021/08/30 08:40:52;;;;;;;6.95;4.53;;;;;;;19.97;100.00;97616.91;4997965;28;20042;-81
2021/08/30 08:43:21;;;;;;;6.95;5.40;;;;;;;20.25;100.00;97611.72;5014224;28;20042;-80
2021/08/30 08:45:49;;;;;;;8.32;5.70;;;;;;;20.36;100.00;97607.91;4998245;28;20042;-80
2021/08/30 08:48:19;;;;;;;9.05;5.75;;;;;;;20.55;100.00;97612.38;5014342;28;20052;-80
2021/08/30 08:50:46;;;;;;;10.30;4.82;;;;;;;20.45;100.00;97613.88;5014627;28;20090;-80
2021/08/30 08:53:12;;;;;;;5.45;4.25;;;;;;;20.22;100.00;97609.69;5011747;28;20041;-80
2021/08/30 08:55:39;;;;;;;8.98;5.80;;;;;;;20.07;100.00;97599.75;4995763;28;20052;-80
2021/08/30 08:58:16;;;;;;;9.77;6.32;;;;;;;20.34;100.00;97617.69;5011598;28;20049;-81
2021/08/30 09:01:12;;;;;;;7.93;6.57;;;;;;;20.20;100.00;97610.09;5014236;28;20145;-81
2021/08/30 09:03:43;;;;;;;;;;;;;;;20.49;100.00;97611.94;5015514;28;20090;-80
2021/08/30 09:06:09;;;;;;;8.63;6.32;;;;;;;20.49;100.00;97611.19;5024424;28;20165;-79
2021/08/30 09:08:46;;;;;;;5.30;4.15;;;;;;;20.57;100.00;97618.28;5020490;28;20122;-80
2021/08/30 09:11:15;;;;;;;6.38;4.63;;;;;;;20.57;100.00;97614.78;5012682;28;20049;-81
2021/08/30 09:13:54;;;;;;;6.30;4.63;;;;;;;20.26;100.00;97619.59;4981630;28;20113;-81
2021/08/30 09:16:23;;;;;;;5.90;4.85;;;;;;;20.54;100.00;97621.81;4994823;28;20046;-80
2021/08/30 09:18:50;;;;;;;6.10;4.70;;;;;;;21.35;100.00;97616.91;5011084;28;20046;-80
2021/08/30 09:21:18;;;;;;;6.03;4.75;;;;;;;21.74;100.00;97612.34;5012738;28;20038;-79
2021/08/30 09:23:45;;;;;;;7.25;4.80;;;;;;;21.14;100.00;97624.25;4994897;28;20098;-80
2021/08/30 09:26:20;;;;;;;5.95;4.07;;;;;;;21.16;100.00;97619.16;4994424;28;20064;-80
2021/08/30 09:28:57;;;;;;;5.30;3.40;;;;;;;21.07;100.00;97619.50;5010204;28;20050;-81
2021/08/30 09:31:24;;;;;;;4.40;2.85;;;;;;;21.44;100.00;97606.34;4993505;28;20069;-79
2021/08/30 09:33:52;;;;;;;3.30;2.45;;;;;;;21.63;100.00;97613.47;5010354;28;20053;-79
2021/08/30 09:36:20;;;;;;;2.40;2.08;;;;;;;21.56;100.00;97617.00;5010760;28;20060;-80
2021/08/30 09:38:54;;;;;;;4.35;2.80;;;;;;;21.39;100.00;97616.91;4994001;28;20128;-79
2021/08/30 09:41:21;;;;;;;6.07;3.97;;;;;;;21.42;100.00;97608.66;4993699;28;20433;-80
2021/08/30 09:43:59;;;;;;;5.82;4.10;;;;;;;21.43;100.00;97609.47;4977637;28;20061;-80
2021/08/30 09:46:31;;;;;;;6.30;4.30;;;;;;;21.22;100.00;97609.34;5011322;28;20092;-81
2021/08/30 09:49:08;;;;;;;6.25;4.10;;;;;;;21.18;100.00;97606.59;4995343;28;20038;-79
2021/08/30 09:51:39;;;;;;;6.60;5.07;;;;;;;20.58;100.00;97610.84;4996018;28;20061;-81
2021/08/30 09:54:07;;;;;;;7.03;5.50;;;;;;;21.04;100.00;97607.25;4995507;28;20046;-80
2021/08/30 09:56:38;;;;;;;8.40;6.20;;;;;;;20.80;100.00;97607.09;4996071;28;20060;-80
2021/08/30 09:59:07;;;;;;;11.98;5.70;;;;;;;21.05;100.00;97608.03;4998845;28;20042;-80
2021/08/30 10:01:41;;;;;;;9.05;5.90;;;;;;;21.69;100.00;97609.19;5014935;28;20046;-81
2021/08/30 10:04:32;;;;;;;5.35;3.88;;;;;;;20.59;100.00;97584.91;5000712;28;20058;-79
2021/08/30 10:07:03;;;;;;;6.15;3.55;;;;;;;20.48;100.00;97604.09;4980364;28;20396;-80
2021/08/30 10:09:33;;;;;;;6.03;4.38;;;;;;;20.72;100.00;97599.94;5014321;28;20193;-79
2021/08/30 10:12:00;;;;;;;5.43;3.80;;;;;;;20.88;100.00;97603.22;4996618;28;20053;-81
2021/08/30 10:14:33;;;;;;;5.75;3.65;;;;;;;20.55;100.00;97600.59;4981806;28;20053;-80
2021/08/30 10:17:04;;;;;;;5.03;3.40;;;;;;;21.07;100.00;97597.47;4995456;28;20667;-80
2021/08/30 10:19:34;;;;;;;4.57;3.28;;;;;;;22.56;100.00;97599.53;4995502;28;20501;-81
2021/08/30 10:22:18;;;;;;;4.72;3.00;;;;;;;22.30;100.00;97605.41;4998310;28;20065;-80
2021/08/30 10:24:45;;;;;;;4.00;2.92;;;;;;;24.32;100.00;97589.94;5020410;28;20058;-79
2021/08/30 10:27:12;;;;;;;4.43;2.97;;;;;;;24.25;96.88;97589.19;5001799;28;20060;-80
2021/08/30 10:29:42;;;;;;;4.68;2.80;;;;;;;25.82;81.16;97588.88;5017546;28;20084;-79
2021/08/30 10:32:38;;;;;;;2.75;2.17;;;;;;;26.72;56.40;97581.59;5019689;28;20034;-80
2021/08/30 10:35:39;;;;;;;3.38;2.40;;;;;;;25.93;59.05;97572.88;5021268;28;20045;-80
2021/08/30 10:38:13;;;;;;;3.25;2.38;;;;;;;25.47;70.69;97594.06;5020676;28;20091;-82
2021/08/30 10:40:51;;;;;;;2.75;2.10;;;;;;;23.80;76.72;97577.97;5006356;28;20056;-80
2021/08/30 10:43:20;;;;;;;;;;;;;;;23.59;80.75;97599.41;5004977;28;20087;-81
2021/08/30 10:45:57;;;;;;;3.10;2.42;;;;;;;23.95;70.81;97587.00;4982962;28;19922;-81
2021/08/30 10:48:39;;;;;;;3.92;2.05;;;;;;;25.08;71.78;97584.19;4998141;28;20117;-80
2021/08/30 10:51:24;;;;;;;2.42;2.03;;;;;;;24.42;73.07;97594.59;5015577;28;20046;-80
2021/08/30 10:54:07;;;;;;;3.10;2.30;;;;;;;23.34;100.00;97597.47;5031187;28;20461;-79
2021/08/30 10:56:34;;;;;;;3.35;2.45;;;;;;;22.09;100.00;97586.88;5054171;28;20056;-81
2021/08/30 10:59:09;;;;;;;2.90;2.00;;;;;;;21.00;100.00;97597.41;5054312;28;20052;-79
2021/08/30 11:01:40;;;;;;;2.77;2.20;;;;;;;20.26;100.00;97605.06;5054320;28;20111;-81
2021/08/30 11:04:12;;;;;;;3.90;2.20;;;;;;;19.19;100.00;97589.28;5037148;28;20646;-79
2021/08/30 11:06:38;;;;;;;3.13;2.33;;;;;;;19.14;100.00;97600.56;5036513;28;20366;-79
2021/08/30 11:09:05;;;;;;;2.80;1.92;;;;;;;19.46;100.00;97605.72;5054782;28;20044;-80
2021/08/30 11:11:33;;;;;;;2.50;1.70;;;;;;;19.30;100.00;97603.91;5021028;28;20071;-79
2021/08/30 11:14:18;;;;;;;2.85;1.50;;;;;;;19.48;100.00;97606.13;5039378;28;20048;-79
2021/08/30 11:16:52;;;;;;;1.60;1.08;;;;;;;19.98;100.00;97611.03;5054156;28;20075;-79
2021/08/30 11:19:23;;;;;;;1.70;0.80;;;;;;;20.52;100.00;97604.88;5037634;28;20100;-80
2021/08/30 11:21:55;;;;;;;1.92;0.90;;;;;;;21.80;100.00;97604.50;5038010;28;20037;-81
2021/08/30 11:24:36;;;;;;;2.75;1.00;;;;;;;22.81;100.00;97610.59;5055610;28;20044;-79
2021/08/30 11:27:20;;;;;;;1.55;1.10;;;;;;;22.57;100.00;97603.06;5021023;28;20140;-79
2021/08/30 11:29:51;;;;;;;2.55;0.70;;;;;;;22.23;100.00;97595.16;5083548;23;20037;-85
2021/08/30 11:32:25;;;;;;;1.23;0.73;;;;;;;21.33;100.00;97604.69;5021037;28;20097;-81
2021/08/30 11:34:52;;;;;;;0.80;0.60;;;;;;;21.36;100.00;97590.16;5018361;28;20045;-83
2021/08/30 11:37:30;;;;;;;0.80;0.60;;;;;;;20.35;100.00;97608.28;5018494;28;20408;-81